createdAt,value
2018-07-17T00:00:37.605Z,19.67
2018-07-17T00:01:37.596Z,19.71
2018-07-17T00:02:37.585Z,19.57
2018-07-17T00:03:37.578Z,19.68
2018-07-17T00:04:37.568Z,19.67
2018-07-17T00:05:37.561Z,19.67
2018-07-17T00:06:37.551Z,19.72
2018-07-17T00:07:37.542Z,19.68
2018-07-17T00:08:37.535Z,19.67
2018-07-17T00:09:37.542Z,19.70
2018-07-17T00:10:37.518Z,19.70
2018-07-17T00:11:37.508Z,19.67
2018-07-17T00:12:37.557Z,19.65
2018-07-17T00:13:37.491Z,19.58
2018-07-17T00:14:37.482Z,19.50
2018-07-17T00:15:37.473Z,19.46
2018-07-17T00:16:37.467Z,19.42
2018-07-17T00:17:37.458Z,19.38
2018-07-17T00:18:37.448Z,19.30
2018-07-17T00:19:37.439Z,19.35
2018-07-17T00:20:37.431Z,19.28
2018-07-17T00:21:37.422Z,19.30
2018-07-17T00:22:37.414Z,19.34
2018-07-17T00:23:37.403Z,19.28
2018-07-17T00:24:37.395Z,19.28
2018-07-17T00:25:37.386Z,19.16
2018-07-17T00:26:37.376Z,19.25
2018-07-17T00:27:37.370Z,19.24
2018-07-17T00:28:37.363Z,19.30
2018-07-17T00:29:37.351Z,19.16
2018-07-17T00:30:37.341Z,19.27
2018-07-17T00:31:37.332Z,19.24
2018-07-17T00:32:37.326Z,19.17
2018-07-17T00:33:37.317Z,19.16
2018-07-17T00:34:37.306Z,19.17
2018-07-17T00:35:37.301Z,19.12
2018-07-17T00:36:37.288Z,19.15
2018-07-17T00:37:37.284Z,19.15
2018-07-17T00:38:37.276Z,19.07
2018-07-17T00:39:37.261Z,19.09
2018-07-17T00:40:37.255Z,19.09
2018-07-17T00:41:37.246Z,19.10
2018-07-17T00:42:37.226Z,19.13
2018-07-17T00:43:37.218Z,19.02
2018-07-17T00:44:37.207Z,19.05
2018-07-17T00:45:37.203Z,19.16
2018-07-17T00:46:37.194Z,19.10
2018-07-17T00:47:37.180Z,19.17
2018-07-17T00:48:37.174Z,19.20
2018-07-17T00:49:37.163Z,19.13
2018-07-17T00:50:37.153Z,19.15
2018-07-17T00:51:37.144Z,19.16
2018-07-17T00:52:37.140Z,19.09
2018-07-17T00:53:37.131Z,19.07
2018-07-17T00:54:37.118Z,19.13
2018-07-17T00:55:37.171Z,19.10
2018-07-17T00:56:37.102Z,19.07
2018-07-17T00:57:37.094Z,19.12
2018-07-17T00:58:37.083Z,19.07
2018-07-17T00:59:37.073Z,19.16
2018-07-17T01:00:37.067Z,19.09
2018-07-17T01:01:37.058Z,19.01
2018-07-17T01:02:37.049Z,19.13
2018-07-17T01:03:37.038Z,19.09
2018-07-17T01:04:37.035Z,18.94
2018-07-17T01:05:37.020Z,18.99
2018-07-17T01:06:37.022Z,19.06
2018-07-17T01:07:37.004Z,19.12
2018-07-17T01:08:36.993Z,19.06
2018-07-17T01:09:36.989Z,19.10
2018-07-17T01:10:36.976Z,19.15
2018-07-17T01:11:36.968Z,19.06
2018-07-17T01:12:36.959Z,19.05
2018-07-17T01:13:37.149Z,19.07
2018-07-17T01:14:36.939Z,19.01
2018-07-17T01:15:36.931Z,18.97
2018-07-17T01:16:36.927Z,18.99
2018-07-17T01:17:36.911Z,18.91
2018-07-17T01:18:36.907Z,18.99
2018-07-17T01:19:36.902Z,18.96
2018-07-17T01:20:36.890Z,18.90
2018-07-17T01:21:36.875Z,18.83
2018-07-17T01:22:36.869Z,18.76
2018-07-17T01:23:36.858Z,18.82
2018-07-17T01:24:36.848Z,18.78
2018-07-17T01:25:36.847Z,18.82
2018-07-17T01:26:36.829Z,18.66
2018-07-17T01:27:36.820Z,18.60
2018-07-17T01:28:36.813Z,18.64
2018-07-17T01:29:36.803Z,18.64
2018-07-17T01:30:36.802Z,18.68
2018-07-17T01:31:36.785Z,18.74
2018-07-17T01:32:36.777Z,18.66
2018-07-17T01:33:36.768Z,18.68
2018-07-17T01:34:36.757Z,18.68
2018-07-17T01:35:36.746Z,18.64
2018-07-17T01:36:36.741Z,18.72
2018-07-17T01:37:36.733Z,18.78
2018-07-17T01:38:36.720Z,18.72
2018-07-17T01:39:36.710Z,18.78
2018-07-17T01:40:36.701Z,18.75
2018-07-17T01:41:36.693Z,18.79
2018-07-17T01:42:36.679Z,18.79
2018-07-17T01:43:36.676Z,18.75
2018-07-17T01:44:36.666Z,18.84
2018-07-17T01:45:36.653Z,18.89
2018-07-17T01:46:36.648Z,18.90
2018-07-17T01:47:36.636Z,18.87
2018-07-17T01:48:36.636Z,18.82
2018-07-17T01:49:36.621Z,18.90
2018-07-17T01:50:36.609Z,18.87
2018-07-17T01:51:36.605Z,18.82
2018-07-17T01:52:36.591Z,18.87
2018-07-17T01:53:36.585Z,18.90
2018-07-17T01:54:36.572Z,18.91
2018-07-17T01:55:36.562Z,18.89
2018-07-17T01:56:36.553Z,18.86
2018-07-17T01:57:36.550Z,18.71
2018-07-17T01:58:36.539Z,18.82
2018-07-17T01:59:36.523Z,18.76
2018-07-17T02:00:36.517Z,18.75
2018-07-17T02:01:36.503Z,18.68
2018-07-17T02:02:36.494Z,18.76
2018-07-17T02:03:36.490Z,18.74
2018-07-17T02:04:36.475Z,18.78
2018-07-17T02:05:36.472Z,18.78
2018-07-17T02:06:36.459Z,18.69
2018-07-17T02:07:36.452Z,18.66
2018-07-17T02:08:36.439Z,18.68
2018-07-17T02:09:36.433Z,18.65
2018-07-17T02:10:36.425Z,18.59
2018-07-17T02:11:36.412Z,18.51
2018-07-17T02:12:36.400Z,18.50
2018-07-17T02:13:36.398Z,18.42
2018-07-17T02:14:36.389Z,18.36
2018-07-17T02:15:36.380Z,18.39
2018-07-17T02:16:36.362Z,18.26
2018-07-17T02:17:36.357Z,18.35
2018-07-17T02:18:36.356Z,18.38
2018-07-17T02:19:36.341Z,18.34
2018-07-17T02:20:36.324Z,18.34
2018-07-17T02:21:36.322Z,18.32
2018-07-17T02:22:36.307Z,18.34
2018-07-17T02:23:36.305Z,18.42
2018-07-17T02:24:36.289Z,18.41
2018-07-17T02:25:36.277Z,18.34
2018-07-17T02:26:36.266Z,18.38
2018-07-17T02:27:36.261Z,18.38
2018-07-17T02:28:36.249Z,18.36
2018-07-17T02:29:36.238Z,18.39
2018-07-17T02:30:36.236Z,18.35
2018-07-17T02:31:36.227Z,18.41
2018-07-17T02:32:36.210Z,18.32
2018-07-17T02:33:36.200Z,18.35
2018-07-17T02:34:36.199Z,18.38
2018-07-17T02:35:36.188Z,18.36
2018-07-17T02:36:36.172Z,18.38
2018-07-17T02:37:36.170Z,18.35
2018-07-17T02:38:36.153Z,18.21
2018-07-17T02:39:36.142Z,18.25
2018-07-17T02:40:36.139Z,18.25
2018-07-17T02:41:36.122Z,18.19
2018-07-17T02:42:36.113Z,18.20
2018-07-17T02:43:36.310Z,18.21
2018-07-17T02:44:36.101Z,18.19
2018-07-17T02:45:36.093Z,18.16
2018-07-17T02:46:36.081Z,18.10
2018-07-17T02:47:36.067Z,18.13
2018-07-17T02:48:36.063Z,18.14
2018-07-17T02:49:36.047Z,18.16
2018-07-17T02:50:36.034Z,18.16
2018-07-17T02:51:36.029Z,18.07
2018-07-17T02:52:36.020Z,18.05
2018-07-17T02:53:36.010Z,18.09
2018-07-17T02:54:35.999Z,18.02
2018-07-17T02:55:35.986Z,18.09
2018-07-17T02:56:35.979Z,18.02
2018-07-17T02:57:35.975Z,17.99
2018-07-17T02:58:35.963Z,18.02
2018-07-17T02:59:35.955Z,18.04
2018-07-17T03:00:35.935Z,18.07
2018-07-17T03:01:35.934Z,18.10
2018-07-17T03:02:35.915Z,18.13
2018-07-17T03:03:35.917Z,18.09
2018-07-17T03:04:35.902Z,18.16
2018-07-17T03:05:35.888Z,18.16
2018-07-17T03:06:35.877Z,18.16
2018-07-17T03:07:35.865Z,18.10
2018-07-17T03:08:35.864Z,18.02
2018-07-17T03:09:35.846Z,18.02
2018-07-17T03:10:35.837Z,18.04
2018-07-17T03:11:35.826Z,18.16
2018-07-17T03:12:35.825Z,18.01
2018-07-17T03:13:35.806Z,18.04
2018-07-17T03:14:35.806Z,18.01
2018-07-17T03:15:35.787Z,18.01
2018-07-17T03:16:35.776Z,17.96
2018-07-17T03:17:35.770Z,18.02
2018-07-17T03:18:35.764Z,17.89
2018-07-17T03:19:35.754Z,17.87
2018-07-17T03:20:35.743Z,17.87
2018-07-17T03:21:35.734Z,17.92
2018-07-17T03:22:35.724Z,17.87
2018-07-17T03:23:35.710Z,17.86
2018-07-17T03:24:35.777Z,17.94
2018-07-17T03:25:35.708Z,17.87
2018-07-17T03:26:35.676Z,17.86
2018-07-17T03:27:35.665Z,17.89
2018-07-17T03:28:35.657Z,17.84
2018-07-17T03:29:35.646Z,17.81
2018-07-17T03:30:35.644Z,17.66
2018-07-17T03:31:35.634Z,17.77
2018-07-17T03:32:35.620Z,17.74
2018-07-17T03:33:35.607Z,17.71
2018-07-17T03:34:35.594Z,17.74
2018-07-17T03:35:35.584Z,17.73
2018-07-17T03:36:35.613Z,17.66
2018-07-17T03:37:35.566Z,17.74
2018-07-17T03:38:35.554Z,17.66
2018-07-17T03:39:35.551Z,17.58
2018-07-17T03:40:35.534Z,17.55
2018-07-17T03:41:35.525Z,17.54
2018-07-17T03:42:35.522Z,17.51
2018-07-17T03:43:35.511Z,17.57
2018-07-17T03:44:35.492Z,17.62
2018-07-17T03:45:35.485Z,17.54
2018-07-17T03:46:35.472Z,17.53
2018-07-17T03:47:35.460Z,17.54
2018-07-17T03:48:35.450Z,17.51
2018-07-17T03:49:35.447Z,17.53
2018-07-17T03:50:35.428Z,17.46
2018-07-17T03:51:35.424Z,17.42
2018-07-17T03:52:35.408Z,17.42
2018-07-17T03:53:35.400Z,17.42
2018-07-17T03:54:35.391Z,17.42
2018-07-17T03:55:35.385Z,17.40
2018-07-17T03:56:35.368Z,17.39
2018-07-17T03:57:35.357Z,17.40
2018-07-17T03:58:35.348Z,17.45
2018-07-17T03:59:35.340Z,17.40
2018-07-17T04:00:35.324Z,17.45
2018-07-17T04:01:35.314Z,17.33
2018-07-17T04:02:35.322Z,17.40
2018-07-17T04:03:35.293Z,17.38
2018-07-17T04:04:35.289Z,17.35
2018-07-17T04:05:35.279Z,17.30
2018-07-17T04:06:35.270Z,17.27
2018-07-17T04:07:35.252Z,17.32
2018-07-17T04:08:35.245Z,17.35
2018-07-17T04:09:35.230Z,17.32
2018-07-17T04:10:35.219Z,17.24
2018-07-17T04:11:35.212Z,17.25
2018-07-17T04:12:35.203Z,17.22
2018-07-17T04:13:35.191Z,17.21
2018-07-17T04:14:35.185Z,17.21
2018-07-17T04:15:35.168Z,17.15
2018-07-17T04:16:35.156Z,17.18
2018-07-17T04:17:35.146Z,17.15
2018-07-17T04:18:35.139Z,17.10
2018-07-17T04:19:35.124Z,17.18
2018-07-17T04:20:35.115Z,17.15
2018-07-17T04:21:35.105Z,17.05
2018-07-17T04:22:35.093Z,17.00
2018-07-17T04:23:35.098Z,16.98
2018-07-17T04:24:35.076Z,17.05
2018-07-17T04:25:35.062Z,16.99
2018-07-17T04:26:35.052Z,17.14
2018-07-17T04:27:35.039Z,17.02
2018-07-17T04:28:35.027Z,17.00
2018-07-17T04:29:35.018Z,16.99
2018-07-17T04:30:35.005Z,16.98
2018-07-17T04:31:35.036Z,16.98
2018-07-17T04:32:34.985Z,17.07
2018-07-17T04:33:34.976Z,17.00
2018-07-17T04:34:34.962Z,17.00
2018-07-17T04:35:34.958Z,16.96
2018-07-17T04:36:34.941Z,16.92
2018-07-17T04:37:34.932Z,16.92
2018-07-17T04:38:34.919Z,16.88
2018-07-17T04:39:34.972Z,17.03
2018-07-17T04:40:34.900Z,16.92
2018-07-17T04:41:34.887Z,16.92
2018-07-17T04:42:34.877Z,17.02
2018-07-17T04:43:35.070Z,17.00
2018-07-17T04:44:34.863Z,16.92
2018-07-17T04:45:34.846Z,16.87
2018-07-17T04:46:34.833Z,16.87
2018-07-17T04:47:34.826Z,16.85
2018-07-17T04:48:34.822Z,16.84
2018-07-17T04:49:35.100Z,16.84
2018-07-17T04:50:34.789Z,16.78
2018-07-17T04:51:34.779Z,16.78
2018-07-17T04:52:34.768Z,16.78
2018-07-17T04:53:34.758Z,16.73
2018-07-17T04:54:34.746Z,16.65
2018-07-17T04:55:34.736Z,16.72
2018-07-17T04:56:34.726Z,16.65
2018-07-17T04:57:34.714Z,16.66
2018-07-17T04:58:34.702Z,16.65
2018-07-17T04:59:34.692Z,16.67
2018-07-17T05:00:34.681Z,16.55
2018-07-17T05:01:34.682Z,16.65
2018-07-17T05:02:34.661Z,16.75
2018-07-17T05:03:34.648Z,16.60
2018-07-17T05:04:34.637Z,16.57
2018-07-17T05:05:34.626Z,16.66
2018-07-17T05:06:34.614Z,16.67
2018-07-17T05:07:34.604Z,16.63
2018-07-17T05:08:34.648Z,16.66
2018-07-17T05:09:34.582Z,16.69
2018-07-17T05:10:34.571Z,16.72
2018-07-17T05:11:34.559Z,16.77
2018-07-17T05:12:34.549Z,16.59
2018-07-17T05:13:34.538Z,16.60
2018-07-17T05:14:34.527Z,16.60
2018-07-17T05:15:34.515Z,16.55
2018-07-17T05:16:34.507Z,16.52
2018-07-17T05:17:34.495Z,16.62
2018-07-17T05:18:34.485Z,16.63
2018-07-17T05:19:34.471Z,16.59
2018-07-17T05:20:34.461Z,16.52
2018-07-17T05:21:34.450Z,16.52
2018-07-17T05:22:34.438Z,16.65
2018-07-17T05:23:34.427Z,16.60
2018-07-17T05:24:34.416Z,16.65
2018-07-17T05:25:34.405Z,16.59
2018-07-17T05:26:34.395Z,16.59
2018-07-17T05:27:34.383Z,16.50
2018-07-17T05:28:34.373Z,16.54
2018-07-17T05:29:34.361Z,16.52
2018-07-17T05:30:34.350Z,16.54
2018-07-17T05:31:34.539Z,16.65
2018-07-17T05:32:34.327Z,16.62
2018-07-17T05:33:34.319Z,16.51
2018-07-17T05:34:34.305Z,16.52
2018-07-17T05:35:34.370Z,16.52
2018-07-17T05:36:34.283Z,16.59
2018-07-17T05:37:34.272Z,16.54
2018-07-17T05:38:34.290Z,16.55
2018-07-17T05:39:34.251Z,16.52
2018-07-17T05:40:34.239Z,16.52
2018-07-17T05:41:34.229Z,16.50
2018-07-17T05:42:34.216Z,16.50
2018-07-17T05:43:34.406Z,16.42
2018-07-17T05:44:34.196Z,16.55
2018-07-17T05:45:34.183Z,16.51
2018-07-17T05:46:34.187Z,16.45
2018-07-17T05:47:34.161Z,16.47
2018-07-17T05:48:34.150Z,16.42
2018-07-17T05:49:34.342Z,16.42
2018-07-17T05:50:34.128Z,16.37
2018-07-17T05:51:34.116Z,16.41
2018-07-17T05:52:34.105Z,16.36
2018-07-17T05:53:34.094Z,16.30
2018-07-17T05:54:34.083Z,16.33
2018-07-17T05:55:34.073Z,16.34
2018-07-17T05:56:34.063Z,16.34
2018-07-17T05:57:34.050Z,16.34
2018-07-17T05:58:34.040Z,16.33
2018-07-17T05:59:34.028Z,16.37
2018-07-17T06:00:34.020Z,16.33
2018-07-17T06:01:34.005Z,16.40
2018-07-17T06:02:33.994Z,16.36
2018-07-17T06:03:33.982Z,16.32
2018-07-17T06:04:33.974Z,16.33
2018-07-17T06:05:33.962Z,16.36
2018-07-17T06:06:33.949Z,16.36
2018-07-17T06:07:33.938Z,16.30
2018-07-17T06:08:33.926Z,16.30
2018-07-17T06:09:33.915Z,16.32
2018-07-17T06:10:33.904Z,16.27
2018-07-17T06:11:33.893Z,16.26
2018-07-17T06:12:33.881Z,16.25
2018-07-17T06:13:33.871Z,16.34
2018-07-17T06:14:33.859Z,16.30
2018-07-17T06:15:33.848Z,16.26
2018-07-17T06:16:33.837Z,16.23
2018-07-17T06:17:33.826Z,16.13
2018-07-17T06:18:33.814Z,16.14
2018-07-17T06:19:33.803Z,16.22
2018-07-17T06:20:33.792Z,16.18
2018-07-17T06:21:33.784Z,16.11
2018-07-17T06:22:33.772Z,16.11
2018-07-17T06:23:33.761Z,16.10
2018-07-17T06:24:33.748Z,16.13
2018-07-17T06:25:33.736Z,16.10
2018-07-17T06:26:33.724Z,16.07
2018-07-17T06:27:33.713Z,16.10
2018-07-17T06:28:33.704Z,16.16
2018-07-17T06:29:33.694Z,16.22
2018-07-17T06:30:33.678Z,16.11
2018-07-17T06:31:33.668Z,16.17
2018-07-17T06:32:33.658Z,16.26
2018-07-17T06:33:33.673Z,16.17
2018-07-17T06:34:33.635Z,16.27
2018-07-17T06:35:33.621Z,16.27
2018-07-17T06:36:33.610Z,16.30
2018-07-17T06:37:33.599Z,16.25
2018-07-17T06:38:33.587Z,16.32
2018-07-17T06:39:33.575Z,16.36
2018-07-17T06:40:33.569Z,16.32
2018-07-17T06:41:33.553Z,16.26
2018-07-17T06:42:33.543Z,16.29
2018-07-17T06:43:33.732Z,16.23
2018-07-17T06:44:33.561Z,16.26
2018-07-17T06:45:33.509Z,16.16
2018-07-17T06:46:33.496Z,16.27
2018-07-17T06:47:33.485Z,16.26
2018-07-17T06:48:33.479Z,16.23
2018-07-17T06:49:33.466Z,16.18
2018-07-17T06:50:33.480Z,16.17
2018-07-17T06:51:33.441Z,16.16
2018-07-17T06:52:33.430Z,16.16
2018-07-17T06:53:33.419Z,16.16
2018-07-17T06:54:33.409Z,16.14
2018-07-17T06:55:33.402Z,16.22
2018-07-17T06:56:33.385Z,16.14
2018-07-17T06:57:33.375Z,16.14
2018-07-17T06:58:33.362Z,16.23
2018-07-17T06:59:33.351Z,16.26
2018-07-17T07:00:33.340Z,16.26
2018-07-17T07:01:33.328Z,16.27
2018-07-17T07:02:33.319Z,16.26
2018-07-17T07:03:33.305Z,16.30
2018-07-17T07:04:33.294Z,16.30
2018-07-17T07:05:33.284Z,16.36
2018-07-17T07:06:33.274Z,16.42
2018-07-17T07:07:33.260Z,16.45
2018-07-17T07:08:33.249Z,16.34
2018-07-17T07:09:33.238Z,16.26
2018-07-17T07:10:33.232Z,16.32
2018-07-17T07:11:33.215Z,16.29
2018-07-17T07:12:33.205Z,16.14
2018-07-17T07:13:33.392Z,16.10
2018-07-17T07:14:33.183Z,16.17
2018-07-17T07:15:33.170Z,16.18
2018-07-17T07:16:33.159Z,16.23
2018-07-17T07:17:33.148Z,16.30
2018-07-17T07:18:33.138Z,16.33
2018-07-17T07:19:33.124Z,16.29
2018-07-17T07:20:33.113Z,16.32
2018-07-17T07:21:33.102Z,16.33
2018-07-17T07:22:33.091Z,16.30
2018-07-17T07:23:33.080Z,16.33
2018-07-17T07:24:33.068Z,16.27
2018-07-17T07:25:33.058Z,16.23
2018-07-17T07:26:33.045Z,16.16
2018-07-17T07:27:33.038Z,16.14
2018-07-17T07:28:33.026Z,16.14
2018-07-17T07:29:33.013Z,16.23
2018-07-17T07:30:33.002Z,16.14
2018-07-17T07:31:32.989Z,16.11
2018-07-17T07:32:32.978Z,16.17
2018-07-17T07:33:32.967Z,16.13
2018-07-17T07:34:32.955Z,16.13
2018-07-17T07:35:32.944Z,16.18
2018-07-17T07:36:32.937Z,16.14
2018-07-17T07:37:32.922Z,16.13
2018-07-17T07:38:32.910Z,16.11
2018-07-17T07:39:32.902Z,16.14
2018-07-17T07:40:32.887Z,16.13
2018-07-17T07:41:32.876Z,16.13
2018-07-17T07:42:32.866Z,16.22
2018-07-17T07:43:32.853Z,16.07
2018-07-17T07:44:32.842Z,16.16
2018-07-17T07:45:32.831Z,16.10
2018-07-17T07:46:32.819Z,16.10
2018-07-17T07:47:32.808Z,15.98
2018-07-17T07:48:32.796Z,16.01
2018-07-17T07:49:32.787Z,15.95
2018-07-17T07:50:32.773Z,15.99
2018-07-17T07:51:32.763Z,16.04
2018-07-17T07:52:32.751Z,16.03
2018-07-17T07:53:32.739Z,16.08
2018-07-17T07:54:32.728Z,15.98
2018-07-17T07:55:32.937Z,15.95
2018-07-17T07:56:32.705Z,16.04
2018-07-17T07:57:32.694Z,16.01
2018-07-17T07:58:32.684Z,15.98
2018-07-17T07:59:32.671Z,15.91
2018-07-17T08:00:32.659Z,15.89
2018-07-17T08:01:32.652Z,15.95
2018-07-17T08:02:32.636Z,15.91
2018-07-17T08:03:32.650Z,15.92
2018-07-17T08:04:32.614Z,15.96
2018-07-17T08:05:32.603Z,15.91
2018-07-17T08:06:32.591Z,15.98
2018-07-17T08:07:32.579Z,15.98
2018-07-17T08:08:32.568Z,16.03
2018-07-17T08:09:32.557Z,15.92
2018-07-17T08:10:32.545Z,15.89
2018-07-17T08:11:32.559Z,15.85
2018-07-17T08:12:32.523Z,15.80
2018-07-17T08:13:32.511Z,15.84
2018-07-17T08:14:32.499Z,15.89
2018-07-17T08:15:32.487Z,15.80
2018-07-17T08:16:32.476Z,15.76
2018-07-17T08:17:32.465Z,15.70
2018-07-17T08:18:32.453Z,15.77
2018-07-17T08:19:32.440Z,15.71
2018-07-17T08:20:32.431Z,15.70
2018-07-17T08:21:32.418Z,15.66
2018-07-17T08:22:32.406Z,15.71
2018-07-17T08:23:32.395Z,15.68
2018-07-17T08:24:32.384Z,15.66
2018-07-17T08:25:32.522Z,15.68
2018-07-17T08:26:32.360Z,15.64
2018-07-17T08:27:32.348Z,15.62
2018-07-17T08:28:32.337Z,15.55
2018-07-17T08:29:32.325Z,15.60
2018-07-17T08:30:32.313Z,15.52
2018-07-17T08:31:32.301Z,15.66
2018-07-17T08:32:32.291Z,15.56
2018-07-17T08:33:32.278Z,15.46
2018-07-17T08:34:32.267Z,15.49
2018-07-17T08:35:32.254Z,15.35
2018-07-17T08:36:32.246Z,15.41
2018-07-17T08:37:32.234Z,15.28
2018-07-17T08:38:32.219Z,15.33
2018-07-17T08:39:32.207Z,15.30
2018-07-17T08:40:32.195Z,15.23
2018-07-17T08:41:32.184Z,15.16
2018-07-17T08:42:32.171Z,15.16
2018-07-17T08:43:32.332Z,15.22
2018-07-17T08:44:32.148Z,15.20
2018-07-17T08:45:32.138Z,15.30
2018-07-17T08:46:32.125Z,15.18
2018-07-17T08:47:32.113Z,15.07
2018-07-17T08:48:32.101Z,15.05
2018-07-17T08:49:32.091Z,15.09
2018-07-17T08:50:32.076Z,15.11
2018-07-17T08:51:32.064Z,15.07
2018-07-17T08:52:32.051Z,15.04
2018-07-17T08:53:32.041Z,15.09
2018-07-17T08:54:32.106Z,15.00
2018-07-17T08:55:32.216Z,15.04
2018-07-17T08:56:32.004Z,15.04
2018-07-17T08:57:31.993Z,15.13
2018-07-17T08:58:31.979Z,15.16
2018-07-17T08:59:31.967Z,15.11
2018-07-17T09:00:31.994Z,15.11
2018-07-17T09:01:31.943Z,15.09
2018-07-17T09:02:31.930Z,15.01
2018-07-17T09:03:31.919Z,15.04
2018-07-17T09:04:31.955Z,14.98
2018-07-17T09:05:31.895Z,15.04
2018-07-17T09:06:31.882Z,15.07
2018-07-17T09:07:31.871Z,15.07
2018-07-17T09:08:31.859Z,15.12
2018-07-17T09:09:31.848Z,15.05
2018-07-17T09:10:31.834Z,15.09
2018-07-17T09:11:31.823Z,15.23
2018-07-17T09:12:31.811Z,15.18
2018-07-17T09:13:31.799Z,15.16
2018-07-17T09:14:31.787Z,15.33
2018-07-17T09:15:31.775Z,15.27
2018-07-17T09:16:31.763Z,15.25
2018-07-17T09:17:31.751Z,15.19
2018-07-17T09:18:31.738Z,15.28
2018-07-17T09:19:31.730Z,15.18
2018-07-17T09:20:31.715Z,15.20
2018-07-17T09:21:31.763Z,15.12
2018-07-17T09:22:31.691Z,15.22
2018-07-17T09:23:31.680Z,15.18
2018-07-17T09:24:31.670Z,15.18
2018-07-17T09:25:31.656Z,15.19
2018-07-17T09:26:31.643Z,15.16
2018-07-17T09:27:31.631Z,15.11
2018-07-17T09:28:31.620Z,15.03
2018-07-17T09:29:31.608Z,14.94
2018-07-17T09:30:31.595Z,14.82
2018-07-17T09:31:31.584Z,14.90
2018-07-17T09:32:31.571Z,14.90
2018-07-17T09:33:31.578Z,14.90
2018-07-17T09:34:31.546Z,14.82
2018-07-17T09:35:31.534Z,14.79
2018-07-17T09:36:31.522Z,14.86
2018-07-17T09:37:31.510Z,14.82
2018-07-17T09:38:31.501Z,14.83
2018-07-17T09:39:31.487Z,14.85
2018-07-17T09:40:31.473Z,14.90
2018-07-17T09:41:31.468Z,15.00
2018-07-17T09:42:31.449Z,14.98
2018-07-17T09:43:31.437Z,15.03
2018-07-17T09:44:31.425Z,15.12
2018-07-17T09:45:31.413Z,15.09
2018-07-17T09:46:31.400Z,15.18
2018-07-17T09:47:31.391Z,15.15
2018-07-17T09:48:31.378Z,15.11
2018-07-17T09:49:31.365Z,15.15
2018-07-17T09:50:31.352Z,15.05
2018-07-17T09:51:31.340Z,15.11
2018-07-17T09:52:31.328Z,15.13
2018-07-17T09:53:31.316Z,15.18
2018-07-17T09:54:31.303Z,15.15
2018-07-17T09:55:31.291Z,15.22
2018-07-17T09:56:31.280Z,15.11
2018-07-17T09:57:31.268Z,15.07
2018-07-17T09:58:31.255Z,15.04
2018-07-17T09:59:31.244Z,15.01
2018-07-17T10:00:31.230Z,15.15
2018-07-17T10:01:31.220Z,15.11
2018-07-17T10:02:31.206Z,15.11
2018-07-17T10:03:31.195Z,15.07
2018-07-17T10:04:31.182Z,15.05
2018-07-17T10:05:31.171Z,15.12
2018-07-17T10:06:31.160Z,15.25
2018-07-17T10:07:31.147Z,15.22
2018-07-17T10:08:31.136Z,15.23
2018-07-17T10:09:31.154Z,15.16
2018-07-17T10:10:31.110Z,15.27
2018-07-17T10:11:31.100Z,15.25
2018-07-17T10:12:31.087Z,15.20
2018-07-17T10:13:31.076Z,15.23
2018-07-17T10:14:31.107Z,15.28
2018-07-17T10:15:31.051Z,15.23
2018-07-17T10:16:31.039Z,15.31
2018-07-17T10:17:31.029Z,15.25
2018-07-17T10:18:31.016Z,15.16
2018-07-17T10:19:31.003Z,15.16
2018-07-17T10:20:30.992Z,15.25
2018-07-17T10:21:30.980Z,15.28
2018-07-17T10:22:30.981Z,15.28
2018-07-17T10:23:30.956Z,15.30
2018-07-17T10:24:30.946Z,15.16
2018-07-17T10:25:30.934Z,15.35
2018-07-17T10:26:30.964Z,15.25
2018-07-17T10:27:30.909Z,15.28
2018-07-17T10:28:30.896Z,15.20
2018-07-17T10:29:30.885Z,15.28
2018-07-17T10:30:30.872Z,15.38
2018-07-17T10:31:30.861Z,15.37
2018-07-17T10:32:30.848Z,15.37
2018-07-17T10:33:30.837Z,15.37
2018-07-17T10:34:30.824Z,15.51
2018-07-17T10:35:30.812Z,15.40
2018-07-17T10:36:30.801Z,15.34
2018-07-17T10:37:30.789Z,15.46
2018-07-17T10:38:30.848Z,15.43
2018-07-17T10:39:30.770Z,15.53
2018-07-17T10:40:30.755Z,15.44
2018-07-17T10:41:30.741Z,15.52
2018-07-17T10:42:30.728Z,15.58
2018-07-17T10:43:30.717Z,15.59
2018-07-17T10:44:30.707Z,15.70
2018-07-17T10:45:30.694Z,15.59
2018-07-17T10:46:30.681Z,15.55
2018-07-17T10:47:30.679Z,15.59
2018-07-17T10:48:30.659Z,15.46
2018-07-17T10:49:30.650Z,15.52
2018-07-17T10:50:30.634Z,15.49
2018-07-17T10:51:30.623Z,15.44
2018-07-17T10:52:30.612Z,15.46
2018-07-17T10:53:30.600Z,15.51
2018-07-17T10:54:30.591Z,15.51
2018-07-17T10:55:30.579Z,15.43
2018-07-17T10:56:30.564Z,15.48
2018-07-17T10:57:30.554Z,15.49
2018-07-17T10:58:30.540Z,15.49
2018-07-17T10:59:30.529Z,15.41
2018-07-17T11:00:30.521Z,15.44
2018-07-17T11:01:30.506Z,15.48
2018-07-17T11:02:30.494Z,15.46
2018-07-17T11:03:30.484Z,15.49
2018-07-17T11:04:30.470Z,15.46
2018-07-17T11:05:30.460Z,15.58
2018-07-17T11:06:30.446Z,15.62
2018-07-17T11:07:30.434Z,15.55
2018-07-17T11:08:30.508Z,15.58
2018-07-17T11:09:30.411Z,15.60
2018-07-17T11:10:30.399Z,15.43
2018-07-17T11:11:30.386Z,15.46
2018-07-17T11:12:30.374Z,15.48
2018-07-17T11:13:30.362Z,15.37
2018-07-17T11:14:30.350Z,15.38
2018-07-17T11:15:30.338Z,15.38
2018-07-17T11:16:30.326Z,15.48
2018-07-17T11:17:30.315Z,15.38
2018-07-17T11:18:30.302Z,15.49
2018-07-17T11:19:30.289Z,15.52
2018-07-17T11:20:30.279Z,15.48
2018-07-17T11:21:30.267Z,15.56
2018-07-17T11:22:30.254Z,15.55
2018-07-17T11:23:30.242Z,15.55
2018-07-17T11:24:30.230Z,15.46
2018-07-17T11:25:30.219Z,15.46
2018-07-17T11:26:30.206Z,15.46
2018-07-17T11:27:30.197Z,15.52
2018-07-17T11:28:30.185Z,15.64
2018-07-17T11:29:30.173Z,15.64
2018-07-17T11:30:30.160Z,15.49
2018-07-17T11:31:30.146Z,15.58
2018-07-17T11:32:30.135Z,15.58
2018-07-17T11:33:30.123Z,15.66
2018-07-17T11:34:30.114Z,15.66
2018-07-17T11:35:30.100Z,15.78
2018-07-17T11:36:30.088Z,15.98
2018-07-17T11:37:30.078Z,16.03
2018-07-17T11:38:30.065Z,16.03
2018-07-17T11:39:30.053Z,16.08
2018-07-17T11:40:30.041Z,16.29
2018-07-17T11:41:30.039Z,16.47
2018-07-17T11:42:30.017Z,16.37
2018-07-17T11:43:30.007Z,16.52
2018-07-17T11:44:29.994Z,16.63
2018-07-17T11:45:29.983Z,16.57
2018-07-17T11:46:29.973Z,16.65
2018-07-17T11:47:29.959Z,16.85
2018-07-17T11:48:29.948Z,16.99
2018-07-17T11:49:29.937Z,16.96
2018-07-17T11:50:29.925Z,17.21
2018-07-17T11:51:29.914Z,17.30
2018-07-17T11:52:29.903Z,17.32
2018-07-17T11:53:29.894Z,17.42
2018-07-17T11:54:29.882Z,17.42
2018-07-17T11:55:29.870Z,17.53
2018-07-17T11:56:29.860Z,17.70
2018-07-17T11:57:29.850Z,17.80
2018-07-17T11:58:29.838Z,17.87
2018-07-17T11:59:29.967Z,17.66
2018-07-17T12:00:29.818Z,17.89
2018-07-17T12:01:29.808Z,17.94
2018-07-17T12:02:29.796Z,18.10
2018-07-17T12:03:29.785Z,18.11
2018-07-17T12:04:29.775Z,18.16
2018-07-17T12:05:29.809Z,18.21
2018-07-17T12:06:29.754Z,18.20
2018-07-17T12:07:29.745Z,18.31
2018-07-17T12:08:29.735Z,18.34
2018-07-17T12:09:29.725Z,18.32
2018-07-17T12:10:29.739Z,18.38
2018-07-17T12:11:29.705Z,18.47
2018-07-17T12:12:29.693Z,18.65
2018-07-17T12:13:29.687Z,18.59
2018-07-17T12:14:29.672Z,18.54
2018-07-17T12:15:29.666Z,18.39
2018-07-17T12:16:29.664Z,18.49
2018-07-17T12:17:29.672Z,18.53
2018-07-17T12:18:29.637Z,18.54
2018-07-17T12:19:29.642Z,18.56
2018-07-17T12:20:29.756Z,18.68
2018-07-17T12:21:29.618Z,18.74
2018-07-17T12:22:29.597Z,18.87
2018-07-17T12:23:29.590Z,19.05
2018-07-17T12:24:29.581Z,19.13
2018-07-17T12:25:29.565Z,19.16
2018-07-17T12:26:29.570Z,19.27
2018-07-17T12:27:29.548Z,19.28
2018-07-17T12:28:29.538Z,19.32
2018-07-17T12:29:29.527Z,19.35
2018-07-17T12:30:29.519Z,19.38
2018-07-17T12:31:29.508Z,19.53
2018-07-17T12:32:29.502Z,19.62
2018-07-17T12:33:29.491Z,19.76
2018-07-17T12:34:29.483Z,19.95
2018-07-17T12:35:29.474Z,19.94
2018-07-17T12:36:29.463Z,20.20
2018-07-17T12:37:29.455Z,20.37
2018-07-17T12:38:29.444Z,20.46
2018-07-17T12:39:29.436Z,20.40
2018-07-17T12:40:29.427Z,20.50
2018-07-17T12:41:29.419Z,20.44
2018-07-17T12:42:29.409Z,20.54
2018-07-17T12:43:29.402Z,20.64
2018-07-17T12:44:29.446Z,20.81
2018-07-17T12:45:29.385Z,20.97
2018-07-17T12:46:29.377Z,21.06
2018-07-17T12:47:29.371Z,21.18
2018-07-17T12:48:29.360Z,21.19
2018-07-17T12:49:29.705Z,21.37
2018-07-17T12:50:29.344Z,21.27
2018-07-17T12:51:29.336Z,21.30
2018-07-17T12:52:29.329Z,21.34